Terminal Aerodrome Forecast
Issued by NWS Twin Cities, MN

Home | Current Version | Previous Version | Graphics & Text | Print | Product List | Glossary On
Versions: 1 2 3 4 5 6 7 8 9 10 11 12 13 14 15 16 17 18 19 20 21 22 23 24 25 26 27 28 29 30 31
000
FTUS43 KMPX 292105 AAA
TAFMSP
TAF AMD
KMSP 292105Z 2921/3024 30010G16KT 6SM -RA BKN050
      TEMPO 2921/2923 VRB10G30KT 3SM -TSRAGS BKN030CB
     FM300000 31008KT P6SM VCSH BKN060 OVC250
     FM300300 32007KT P6SM SKC
     FM301400 02007KT P6SM SCT250=

USA.gov is the U.S. government's official web portal to all federal, state and local government web resources and services.